ADDS METAR Data INFO
IDs: Format: Raw Decoded Include TAF

Data at: 0216 UTC 18 Jan 2018

KLBT 180205Z AUTO 35013G22KT 9SM FEW012 BKN042 OVC055 M01/M03 A3022 RMK AO2 SNE0159 P0000 T10111028
KLBT 180154Z AUTO 36011KT 5SM -SN BR FEW008 BKN022 OVC055 M01/M02 A3021 RMK AO2 SLP230 P0000 T10111022
KLBT 180149Z AUTO 36014G21KT 4SM -SN BR SCT008 BKN013 OVC055 M01/M02 A3020 RMK AO2 P0000
KLBT 180137Z AUTO 35013G20KT 2SM -SN BR BKN008 BKN011 OVC015 M01/M02 A3020 RMK AO2 P0000 T10061017
KLBT 180107Z AUTO 35011G21KT 1 1/4SM -SN BR OVC009 00/M01 A3019 RMK AO2 P0000 T00001006
KLBT 180054Z AUTO 34013KT 1 1/4SM -SN BR BKN007 OVC015 00/M01 A3018 RMK AO2 UPE15SNB28 SLP222 P0000 T00001006
KLBT 180045Z AUTO 34013KT 1 1/2SM -SN BR BKN007 OVC012 01/00 A3018 RMK AO2 UPE15SNB28 P0000 T00060000
KLBT 180043Z AUTO 34011KT 1 3/4SM -SN BR OVC008 01/00 A3018 RMK AO2 UPE15SNB28 P0000 T00060000
KLBT 180037Z AUTO 35011KT 4SM -SN BR BKN008 OVC015 01/00 A3018 RMK AO2 UPE15SNB28 CIG 006V013 P0000 T00060000
KLBT 180027Z AUTO 36010KT 7SM OVC010 01/01 A3018 RMK AO2 UPE15 CIG 006V012 P0000 T00110006
KLBT 172354Z AUTO 35009KT 5SM UP BR OVC008 01/01 A3017 RMK AO2 RAE17UPB17 CIG 006V010 SLP218 P0001 60016 T00110006 10039 20011 53016
KLBT 172254Z AUTO 33009KT 4SM -RA BR OVC006 03/02 A3015 RMK AO2 CIG 004V010 SLP211 P0005 T00280022
KLBT 172220Z AUTO 34006KT 3SM -RA BR OVC006 03/03 A3013 RMK AO2 CIG 004V009 P0002 T00330028
KLBT 172213Z AUTO 34005KT 3SM -RA BR OVC007 03/03 A3013 RMK AO2 CIG 004V009 P0001 T00330028
KLBT 172154Z AUTO 34006KT 2 1/2SM -RA BR BKN007 OVC026 03/03 A3013 RMK AO2 SLP204 P0004 T00330028
KLBT 172133Z AUTO 34005KT 2 1/2SM -RA BR SCT007 BKN026 OVC032 03/03 A3013 RMK AO2 P0002 T00330028
KLBT 172126Z AUTO 35006KT 3SM -RA BR SCT006 SCT027 OVC031 03/03 A3013 RMK AO2 P0002 T00330028
KLBT 172054Z AUTO 07005KT 4SM -RA BR OVC038 03/03 A3012 RMK AO2 SLP202 P0003 60006 T00330028 56021
KLBT 171954Z AUTO 07006KT 3SM -RA BR OVC037 03/02 A3014 RMK AO2 RAE1855B13 SLP208 P0002 T00330022
KLBT 171854Z AUTO 03009KT 7SM -RA BKN049 OVC060 04/02 A3015 RMK AO2 SLP209 P0001 T00390022
KLBT 171754Z AUTO 02011KT 7SM -RA BKN050 OVC060 04/01 A3019 RMK AO2 SLP222 P0000 60000 T00390006 10050 20006 58016
KLBT 171654Z AUTO 35008KT 10SM -RA OVC055 05/M01 A3023 RMK AO2 RAB54 SLP236 P0000 T00501011
KLBT 171554Z AUTO 02006KT 10SM OVC060 05/00 A3024 RMK AO2 SLP239 T00500000
KLBT 171454Z AUTO 04004KT 10SM OVC070 05/01 A3023 RMK AO2 SLP238 T00500006 53001
KLBT 171354Z AUTO 32005KT 10SM OVC070 04/01 A3023 RMK AO2 SLP236 T00390006
KLBT 171254Z AUTO 11006KT 10SM OVC060 02/00 A3022 RMK AO2 SLP234 T00170000
KLBT 171154Z AUTO 00000KT 10SM OVC065 01/M01 A3023 RMK AO2 SLP237 T00061006 10006 21011 56009
KLBT 171054Z AUTO 00000KT 10SM BKN060 M01/M02 A3024 RMK AO2 SLP240 T10061017
KLBT 170954Z AUTO 00000KT 10SM CLR M01/M02 A3024 RMK AO2 SLP239 T10061017
KLBT 170854Z AUTO 00000KT 10SM CLR M01/M02 A3026 RMK AO2 SLP245 T10111017 58009
KLBT 170754Z AUTO 00000KT 10SM CLR M01/M02 A3027 RMK AO2 SLP251 T10061017
KLBT 170654Z AUTO 00000KT 10SM CLR 00/M02 A3028 RMK AO2 SLP253 T00001017
KLBT 170554Z AUTO 00000KT 10SM CLR 00/M02 A3028 RMK AO2 SLP254 T00001017 10028 21006 56017
KLBT 170454Z AUTO 00000KT 10SM CLR 00/M02 A3029 RMK AO2 SLP257 T00001022 401061061
KLBT 170354Z AUTO 00000KT 10SM CLR 01/M02 A3031 RMK AO2 SLP264 T00061017
KLBT 170254Z AUTO 00000KT 10SM CLR M01/M02 A3033 RMK AO2 SLP273 T10061017 56008
KLBT 170154Z AUTO 00000KT 10SM CLR 00/M02 A3034 RMK AO2 SLP276 T00001022
KLBT 170054Z AUTO 12003KT 10SM CLR 01/M02 A3035 RMK AO2 SLP277 T00111022
KLBT 162354Z AUTO 00000KT 10SM CLR 03/M02 A3036 RMK AO2 SLP281 T00331022 10106 20028 51002
KLBT 162254Z AUTO 00000KT 10SM CLR 04/M02 A3035 RMK AO2 SLP278 T00441022
KLBT 162154Z AUTO 00000KT 10SM CLR 09/M04 A3037 RMK AO2 SLP284 T00891044
KLBT 162054Z AUTO 34005KT 10SM CLR 10/M04 A3035 RMK AO2 SLP278 T01001044 56017
KLBT 161954Z AUTO 29003KT 10SM CLR 10/M05 A3036 RMK AO2 SLP280 T01001050
KLBT 161854Z AUTO 00000KT 10SM CLR 10/M06 A3037 RMK AO2 SLP284 T01001056
KLBT 161754Z AUTO 30006KT 10SM CLR 09/M06 A3040 RMK AO2 SLP295 T00891056 10089 21061 58029
KLBT 161654Z AUTO 04006KT 10SM CLR 07/M06 A3044 RMK AO2 SLP309 T00721056
KLBT 161554Z AUTO 00000KT 10SM CLR 06/M06 A3047 RMK AO2 SLP318 T00561056
KLBT 161454Z AUTO 11003KT 10SM CLR 02/M04 A3049 RMK AO2 SLP325 T00221039 51007